Time;durP1;ratioP1;P1;durP2;ratioP2;P2;SDS_P1;SDS_P2;PMS_P1;PMS_P2;Temp;Humidity;BMP_temperature;BMP_pressure;BME280_temperature;BME280_humidity;BME280_pressure;Samples;Min_cycle;Max_cycle;Signal;HPM_P1;HPM_P2
2023/12/15 00:01:18;;;;;;;29.15;14.10;;;7.00;99.90;;;;;;5043200;28;20028;-73
2023/12/15 00:03:43;;;;;;;24.80;13.60;;;7.00;99.90;;;;;;5046301;28;20025;-73
2023/12/15 00:06:09;;;;;;;25.17;13.65;;;7.00;99.90;;;;;;5042476;28;20026;-74
2023/12/15 00:08:35;;;;;;;26.10;14.18;;;7.00;99.90;;;;;;5047970;28;20099;-74
2023/12/15 00:11:00;;;;;;;23.38;13.38;;;7.00;99.90;;;;;;5043237;28;20030;-73
2023/12/15 00:13:26;;;;;;;23.88;12.95;;;7.00;99.90;;;;;;5047513;28;20032;-74
2023/12/15 00:15:53;;;;;;;20.20;13.25;;;7.00;99.90;;;;;;5036520;28;20060;-73
2023/12/15 00:18:19;;;;;;;24.88;14.40;;;7.00;99.90;;;;;;5037470;28;20017;-73
2023/12/15 00:20:44;;;;;;;27.48;14.07;;;7.00;99.90;;;;;;5034293;28;20655;-73
2023/12/15 00:23:10;;;;;;;24.85;13.45;;;7.10;99.90;;;;;;5043284;28;20025;-73
2023/12/15 00:25:36;;;;;;;25.73;14.40;;;7.00;99.90;;;;;;5031946;28;20029;-73
2023/12/15 00:28:02;;;;;;;22.15;14.35;;;7.00;99.90;;;;;;5041389;28;20025;-74
2023/12/15 00:30:27;;;;;;;26.35;14.15;;;7.00;99.90;;;;;;5034322;28;20017;-73
2023/12/15 00:32:53;;;;;;;27.77;14.40;;;7.00;99.90;;;;;;5046611;28;20025;-73
2023/12/15 00:35:19;;;;;;;28.83;15.18;;;7.00;99.90;;;;;;5046838;28;20382;-73
2023/12/15 00:37:44;;;;;;;37.45;16.60;;;7.10;99.90;;;;;;5047044;28;20877;-74
2023/12/15 00:40:10;;;;;;;30.25;16.73;;;7.10;99.90;;;;;;5040093;28;20772;-73
2023/12/15 00:42:36;;;;;;;30.42;16.35;;;7.00;99.90;;;;;;5045062;28;20021;-73
2023/12/15 00:45:02;;;;;;;33.30;17.20;;;7.10;99.90;;;;;;5040968;28;20029;-74
2023/12/15 00:47:28;;;;;;;33.20;16.98;;;7.00;99.90;;;;;;5047778;28;20013;-73
2023/12/15 00:49:54;;;;;;;38.90;18.50;;;7.00;99.90;;;;;;5034944;28;20018;-74
2023/12/15 00:52:19;;;;;;;43.55;19.05;;;7.10;99.90;;;;;;5029490;28;20112;-74
2023/12/15 00:54:45;;;;;;;40.80;20.02;;;7.10;99.90;;;;;;5031720;28;20475;-74
2023/12/15 00:57:10;;;;;;;43.35;20.60;;;7.10;99.90;;;;;;5028713;28;20022;-73
2023/12/15 00:59:36;;;;;;;49.58;22.77;;;7.10;99.90;;;;;;5030774;28;20100;-74
2023/12/15 01:02:03;;;;;;;53.00;24.42;;;7.10;99.90;;;;;;5046194;28;20500;-74
2023/12/15 01:04:29;;;;;;;56.55;25.45;;;7.10;99.90;;;;;;5044664;28;20029;-73
2023/12/15 01:06:54;;;;;;;55.58;26.40;;;7.10;99.90;;;;;;5043991;28;20031;-73
2023/12/15 01:09:21;;;;;;;57.78;26.23;;;7.10;99.90;;;;;;5039984;28;20025;-73
2023/12/15 01:11:50;;;;;;;71.10;28.27;;;7.10;99.90;;;;;;5041113;28;20428;-73
2023/12/15 01:14:15;;;;;;;64.90;28.85;;;7.10;99.90;;;;;;5034805;28;20052;-73
2023/12/15 01:16:48;;;;;;;57.55;27.05;;;7.10;99.90;;;;;;5035463;28;20056;-73
2023/12/15 01:19:14;;;;;;;73.13;30.23;;;7.10;99.90;;;;;;5031062;28;20025;-73
2023/12/15 01:21:39;;;;;;;69.13;28.70;;;7.10;99.90;;;;;;5033443;28;20434;-73
2023/12/15 01:24:05;;;;;;;74.70;30.58;;;7.10;99.90;;;;;;5039353;28;20091;-74
2023/12/15 01:26:31;;;;;;;65.97;28.75;;;7.20;99.90;;;;;;5027631;28;20395;-74
2023/12/15 01:28:56;;;;;;;74.18;30.02;;;7.20;99.90;;;;;;5028627;28;20109;-74
2023/12/15 01:31:22;;;;;;;81.28;32.42;;;7.20;99.90;;;;;;5027567;28;20029;-74
2023/12/15 01:33:48;;;;;;;77.78;31.88;;;7.20;99.90;;;;;;5032126;28;20032;-73
2023/12/15 01:36:13;;;;;;;83.47;33.10;;;7.20;99.90;;;;;;5045087;28;20056;-74
2023/12/15 01:38:39;;;;;;;87.80;33.65;;;7.20;99.90;;;;;;5041600;28;20033;-74
2023/12/15 01:41:05;;;;;;;80.55;33.95;;;7.20;99.90;;;;;;5043052;28;20029;-73
2023/12/15 01:43:30;;;;;;;85.80;34.42;;;7.20;99.90;;;;;;5045484;28;20522;-73
2023/12/15 01:45:59;;;;;;;95.05;35.05;;;7.20;99.90;;;;;;5052313;28;20033;-74
2023/12/15 01:48:25;;;;;;;85.93;32.42;;;7.20;99.90;;;;;;5048611;28;20087;-74
2023/12/15 01:50:51;;;;;;;87.47;33.20;;;7.20;99.90;;;;;;5036403;28;20495;-74
2023/12/15 01:53:16;;;;;;;93.05;34.63;;;7.20;99.90;;;;;;5048506;28;20032;-74
2023/12/15 01:55:42;;;;;;;94.20;36.45;;;7.30;99.90;;;;;;5034500;28;20425;-74
2023/12/15 01:58:10;;;;;;;109.53;38.28;;;7.30;99.90;;;;;;5034857;28;20059;-74
2023/12/15 02:00:36;;;;;;;105.47;35.63;;;7.30;99.90;;;;;;5042939;28;20025;-74
2023/12/15 02:03:02;;;;;;;104.20;37.53;;;7.30;99.90;;;;;;5051685;28;20045;-73
2023/12/15 02:05:28;;;;;;;106.07;37.88;;;7.30;99.90;;;;;;5050002;28;20045;-74
2023/12/15 02:07:53;;;;;;;104.07;38.35;;;7.30;99.90;;;;;;5047090;28;20021;-73
2023/12/15 02:10:19;;;;;;;101.32;36.90;;;7.30;99.90;;;;;;5048340;28;20529;-73
2023/12/15 02:12:44;;;;;;;107.55;37.67;;;7.30;99.90;;;;;;5043263;28;20029;-74
2023/12/15 02:15:11;;;;;;;105.82;38.35;;;7.30;99.90;;;;;;5046121;28;20021;-74
2023/12/15 02:17:37;;;;;;;117.68;39.22;;;7.30;99.90;;;;;;5046053;28;20901;-74
2023/12/15 02:20:03;;;;;;;100.57;36.33;;;7.30;99.90;;;;;;5044309;28;20017;-73
2023/12/15 02:22:29;;;;;;;107.53;36.63;;;7.30;99.90;;;;;;5043872;28;20375;-74
2023/12/15 02:24:54;;;;;;;105.57;37.72;;;7.40;99.90;;;;;;5041936;28;20711;-74
2023/12/15 02:27:20;;;;;;;118.50;39.13;;;7.40;99.90;;;;;;5034561;28;20057;-73
2023/12/15 02:29:46;;;;;;;102.63;36.85;;;7.40;99.90;;;;;;5046107;28;20035;-73
2023/12/15 02:32:11;;;;;;;99.32;36.67;;;7.40;99.90;;;;;;5039732;28;20027;-73
2023/12/15 02:34:37;;;;;;;111.93;36.08;;;7.40;99.90;;;;;;5051731;28;20029;-73
2023/12/15 02:37:03;;;;;;;119.82;38.53;;;7.40;99.90;;;;;;5048646;28;20041;-73
2023/12/15 02:39:28;;;;;;;112.88;37.25;;;7.40;99.90;;;;;;5047795;28;20040;-73
2023/12/15 02:41:54;;;;;;;128.45;40.78;;;7.40;99.90;;;;;;5046481;28;20099;-73
2023/12/15 02:44:19;;;;;;;127.57;39.35;;;7.50;99.90;;;;;;5049511;28;20094;-73
2023/12/15 02:46:45;;;;;;;128.80;40.90;;;7.40;99.90;;;;;;5044544;28;20017;-73
2023/12/15 02:49:10;;;;;;;141.02;39.58;;;7.40;99.90;;;;;;5039222;28;20017;-73
2023/12/15 02:51:36;;;;;;;124.05;37.97;;;7.40;99.90;;;;;;5042355;28;20020;-73
2023/12/15 02:54:02;;;;;;;134.60;41.53;;;7.50;99.90;;;;;;5039803;28;20112;-73
2023/12/15 02:56:28;;;;;;;137.02;39.90;;;7.50;99.90;;;;;;5035984;28;20037;-73
2023/12/15 02:58:54;;;;;;;126.13;40.20;;;7.50;99.90;;;;;;5038175;28;20037;-73
2023/12/15 03:01:19;;;;;;;142.65;40.90;;;7.50;99.90;;;;;;5046602;28;20111;-73
2023/12/15 03:03:45;;;;;;;134.00;38.67;;;7.50;99.90;;;;;;5047535;28;20059;-73
2023/12/15 03:06:11;;;;;;;135.20;38.95;;;7.50;99.90;;;;;;5045596;28;20029;-74
2023/12/15 03:08:37;;;;;;;143.20;40.38;;;7.50;99.90;;;;;;5045548;28;20017;-73
2023/12/15 03:11:03;;;;;;;148.98;39.88;;;7.50;99.90;;;;;;5039477;28;20427;-74
2023/12/15 03:13:29;;;;;;;140.85;39.60;;;7.60;99.90;;;;;;5043073;28;20032;-74
2023/12/15 03:16:06;;;;;;;153.70;40.35;;;7.50;99.90;;;;;;5037464;28;20029;-73
2023/12/15 03:18:31;;;;;;;152.93;40.05;;;7.60;99.90;;;;;;5046957;28;20044;-73
2023/12/15 03:20:57;;;;;;;147.35;39.85;;;7.50;99.90;;;;;;5032893;28;20029;-74
2023/12/15 03:23:22;;;;;;;144.45;38.17;;;7.60;99.90;;;;;;5035204;28;20056;-74
2023/12/15 03:25:48;;;;;;;155.95;39.33;;;7.60;99.90;;;;;;5031116;28;20124;-74
2023/12/15 03:28:15;;;;;;;171.05;41.55;;;7.60;99.90;;;;;;5043891;28;20051;-74
2023/12/15 03:30:41;;;;;;;181.68;44.03;;;7.60;99.90;;;;;;5035736;28;20677;-74
2023/12/15 03:33:06;;;;;;;166.02;42.70;;;7.60;99.90;;;;;;5046491;28;20028;-74
2023/12/15 03:35:32;;;;;;;162.93;40.85;;;7.60;99.90;;;;;;5048835;28;20108;-74
2023/12/15 03:37:57;;;;;;;171.82;40.75;;;7.60;99.90;;;;;;5048734;28;20033;-73
2023/12/15 03:40:23;;;;;;;159.75;40.80;;;7.70;99.90;;;;;;5041418;28;20521;-73
2023/12/15 03:42:49;;;;;;;174.27;40.00;;;7.70;99.90;;;;;;5048637;28;20025;-73
2023/12/15 03:45:14;;;;;;;182.75;43.22;;;7.60;99.90;;;;;;5041501;28;20071;-74
2023/12/15 03:47:40;;;;;;;163.60;41.58;;;7.70;99.90;;;;;;5038794;28;20023;-73
2023/12/15 03:50:06;;;;;;;182.10;44.67;;;7.70;99.90;;;;;;5043475;28;20095;-73
2023/12/15 03:52:33;;;;;;;183.43;44.65;;;7.70;99.90;;;;;;5043442;28;20478;-73
2023/12/15 03:54:58;;;;;;;177.43;42.20;;;7.70;99.90;;;;;;5032116;28;20025;-73
2023/12/15 03:57:24;;;;;;;193.18;45.33;;;7.70;99.90;;;;;;5029781;28;20395;-74
2023/12/15 03:59:49;;;;;;;180.38;42.13;;;7.70;99.90;;;;;;5042066;28;20056;-72
2023/12/15 04:02:15;;;;;;;203.52;47.70;;;7.70;99.90;;;;;;5039607;28;20029;-73
2023/12/15 04:04:42;;;;;;;190.23;43.78;;;7.70;99.90;;;;;;5042903;28;20009;-74
2023/12/15 04:07:08;;;;;;;192.95;45.88;;;7.70;99.90;;;;;;5044185;28;20570;-73
2023/12/15 04:09:34;;;;;;;175.90;44.13;;;7.70;99.90;;;;;;5040287;28;20104;-73
2023/12/15 04:11:59;;;;;;;178.57;42.17;;;7.70;99.90;;;;;;5041675;28;20756;-74
2023/12/15 04:14:25;;;;;;;187.80;45.70;;;7.70;99.90;;;;;;5041902;28;20048;-74
2023/12/15 04:16:51;;;;;;;179.65;42.15;;;7.70;99.90;;;;;;5047128;28;20036;-74
2023/12/15 04:19:16;;;;;;;188.43;42.10;;;7.70;99.90;;;;;;5042204;28;20021;-74
2023/12/15 04:21:42;;;;;;;168.35;41.40;;;7.70;99.90;;;;;;5035389;28;20464;-73
2023/12/15 04:24:08;;;;;;;185.30;42.53;;;7.70;99.90;;;;;;5032841;28;20017;-74
2023/12/15 04:26:33;;;;;;;167.27;41.58;;;7.80;99.90;;;;;;5031549;28;20449;-73
2023/12/15 04:28:59;;;;;;;174.07;40.70;;;7.80;99.90;;;;;;5029915;28;20029;-73
2023/12/15 04:31:25;;;;;;;216.43;42.25;;;7.80;99.90;;;;;;5028099;28;20030;-73
2023/12/15 04:33:50;;;;;;;184.05;42.20;;;7.90;99.90;;;;;;5045780;28;20025;-74
2023/12/15 04:36:20;;;;;;;167.50;41.38;;;7.90;99.90;;;;;;5044504;28;20053;-73
2023/12/15 04:38:46;;;;;;;193.13;41.15;;;7.90;99.90;;;;;;5040544;28;20025;-73
2023/12/15 04:41:19;;;;;;;179.75;40.55;;;7.90;99.90;;;;;;5045496;28;20024;-73
2023/12/15 04:43:45;;;;;;;213.80;46.65;;;7.90;99.90;;;;;;5041980;28;20052;-74
2023/12/15 04:46:11;;;;;;;197.98;45.25;;;7.90;99.90;;;;;;5043611;28;20631;-73
2023/12/15 04:48:37;;;;;;;186.02;48.92;;;7.90;99.90;;;;;;5033629;28;20025;-73
2023/12/15 04:51:03;;;;;;;192.10;45.30;;;7.90;99.90;;;;;;5032926;28;20028;-73
2023/12/15 04:53:28;;;;;;;193.07;46.17;;;7.90;99.90;;;;;;5031051;28;20025;-73
2023/12/15 04:55:54;;;;;;;115.25;28.17;;;7.90;99.90;;;;;;5042467;28;20032;-74
2023/12/15 04:58:19;;;;;;;68.20;22.35;;;7.90;99.90;;;;;;5029746;28;20573;-74
2023/12/15 05:00:45;;;;;;;109.25;23.98;;;7.90;99.90;;;;;;5027362;28;20060;-74
2023/12/15 05:03:11;;;;;;;84.32;23.98;;;7.90;99.90;;;;;;5046207;28;20398;-73
2023/12/15 05:05:36;;;;;;;79.65;21.85;;;7.90;99.90;;;;;;5044691;28;20457;-74
2023/12/15 05:08:02;;;;;;;101.47;25.52;;;7.90;99.90;;;;;;5043629;28;20556;-73
2023/12/15 05:10:28;;;;;;;78.13;22.20;;;7.90;99.90;;;;;;5042915;28;20032;-73
2023/12/15 05:12:53;;;;;;;55.13;17.48;;;7.90;99.90;;;;;;5036514;28;20832;-74
2023/12/15 05:15:19;;;;;;;76.30;19.83;;;7.90;99.90;;;;;;5040380;28;20064;-73
2023/12/15 05:17:45;;;;;;;69.55;19.25;;;7.90;99.90;;;;;;5033192;28;20096;-73
2023/12/15 05:20:11;;;;;;;68.22;19.58;;;8.00;99.90;;;;;;5036990;28;20021;-74
2023/12/15 05:22:37;;;;;;;84.07;23.67;;;8.00;99.90;;;;;;5031067;28;20024;-74
2023/12/15 05:25:03;;;;;;;61.97;18.88;;;8.00;99.90;;;;;;5043377;28;20626;-73
2023/12/15 05:27:28;;;;;;;73.10;21.75;;;8.00;99.90;;;;;;5027847;28;20530;-73
2023/12/15 05:29:54;;;;;;;78.97;21.45;;;8.00;99.90;;;;;;5028361;28;20036;-73
2023/12/15 05:32:19;;;;;;;66.72;21.45;;;8.00;99.90;;;;;;5031820;28;20081;-72
2023/12/15 05:34:45;;;;;;;83.40;22.63;;;8.00;99.90;;;;;;5046093;28;20028;-73
2023/12/15 05:37:12;;;;;;;69.00;19.23;;;8.00;99.90;;;;;;5058359;28;20068;-74
2023/12/15 05:39:42;;;;;;;70.60;18.17;;;8.00;99.90;;;;;;5041316;28;20021;-73
2023/12/15 05:42:08;;;;;;;68.80;19.05;;;8.00;99.90;;;;;;5044824;28;20033;-73
2023/12/15 05:44:33;;;;;;;53.55;16.27;;;8.10;99.90;;;;;;5044201;28;20025;-73
2023/12/15 05:46:59;;;;;;;85.93;21.98;;;8.10;99.90;;;;;;5038629;28;20028;-73
2023/12/15 05:49:24;;;;;;;88.47;21.55;;;8.10;99.90;;;;;;5035821;28;20171;-73
2023/12/15 05:51:50;;;;;;;92.30;23.48;;;8.10;99.90;;;;;;5032267;28;20045;-73
2023/12/15 05:54:16;;;;;;;73.95;22.25;;;8.10;99.90;;;;;;5031967;28;20072;-73
2023/12/15 05:56:41;;;;;;;95.53;24.45;;;8.10;99.90;;;;;;5029607;28;20440;-73
2023/12/15 05:59:08;;;;;;;92.93;23.90;;;8.10;99.90;;;;;;5040144;28;20029;-73
2023/12/15 06:01:34;;;;;;;111.72;26.38;;;8.10;99.90;;;;;;5025867;28;20049;-73
2023/12/15 06:03:59;;;;;;;91.32;24.23;;;8.10;99.90;;;;;;5038189;28;20060;-73
2023/12/15 06:06:25;;;;;;;79.68;21.23;;;8.00;99.90;;;;;;5046116;28;20050;-73
2023/12/15 06:08:51;;;;;;;99.25;23.95;;;8.10;99.90;;;;;;5045024;28;20029;-73
2023/12/15 06:11:17;;;;;;;79.85;23.50;;;8.00;99.90;;;;;;5036737;28;20055;-73
2023/12/15 06:13:43;;;;;;;80.82;23.92;;;8.00;99.90;;;;;;5041469;28;20033;-73
2023/12/15 06:16:16;;;;;;;83.53;22.00;;;8.00;99.90;;;;;;5035076;28;20037;-73
2023/12/15 06:18:42;;;;;;;88.53;24.13;;;8.00;99.90;;;;;;5033140;28;20032;-73
2023/12/15 06:21:09;;;;;;;91.13;24.30;;;8.10;99.90;;;;;;5032033;28;20029;-73
2023/12/15 06:23:34;;;;;;;103.40;24.60;;;8.10;99.90;;;;;;5035669;28;20028;-73
2023/12/15 06:26:00;;;;;;;90.85;24.17;;;8.00;99.90;;;;;;5029427;28;20419;-73
2023/12/15 06:28:26;;;;;;;86.45;21.83;;;8.10;99.90;;;;;;5031589;28;20034;-74
2023/12/15 06:30:51;;;;;;;66.35;18.88;;;8.10;99.90;;;;;;5041371;28;20401;-73
2023/12/15 06:33:17;;;;;;;99.63;23.90;;;8.10;99.90;;;;;;5030837;28;20959;-73
2023/12/15 06:35:43;;;;;;;101.20;24.13;;;8.10;99.90;;;;;;5048446;28;20033;-73
2023/12/15 06:38:08;;;;;;;91.15;21.60;;;8.10;99.90;;;;;;5047056;28;20013;-73
2023/12/15 06:40:34;;;;;;;79.32;22.95;;;8.10;99.90;;;;;;5048099;28;20021;-73
2023/12/15 06:43:00;;;;;;;86.50;21.85;;;8.10;99.90;;;;;;5047523;28;20024;-73
2023/12/15 06:45:25;;;;;;;109.20;25.10;;;8.10;99.90;;;;;;5042803;28;20036;-74
2023/12/15 06:47:51;;;;;;;78.95;20.60;;;8.10;99.90;;;;;;5040947;28;20013;-71
2023/12/15 06:50:17;;;;;;;73.68;22.67;;;8.10;99.90;;;;;;5034759;28;20033;-71
2023/12/15 06:52:44;;;;;;;75.30;19.25;;;8.10;99.90;;;;;;5035846;28;20660;-71
2023/12/15 06:55:10;;;;;;;104.18;20.80;;;8.10;99.90;;;;;;5042135;28;20106;-71
2023/12/15 06:57:36;;;;;;;100.70;22.55;;;8.20;99.90;;;;;;5040232;28;20032;-71
2023/12/15 07:00:02;;;;;;;88.25;23.90;;;8.20;99.90;;;;;;5036780;28;20036;-71
2023/12/15 07:02:30;;;;;;;84.22;23.35;;;8.20;99.90;;;;;;5032753;28;20040;-71
2023/12/15 07:04:56;;;;;;;99.57;25.65;;;8.20;99.90;;;;;;5033317;28;20009;-71
2023/12/15 07:07:22;;;;;;;89.55;23.45;;;8.20;99.90;;;;;;5030213;28;20053;-71
2023/12/15 07:09:47;;;;;;;73.32;18.92;;;8.10;99.90;;;;;;5047367;28;20396;-71
2023/12/15 07:12:13;;;;;;;89.15;24.17;;;8.20;99.90;;;;;;5039701;28;20422;-71
2023/12/15 07:14:39;;;;;;;80.40;20.80;;;8.20;99.90;;;;;;5041770;28;20042;-71
2023/12/15 07:17:05;;;;;;;114.60;27.35;;;8.20;99.90;;;;;;5045610;28;20017;-71
2023/12/15 07:19:30;;;;;;;83.93;24.30;;;8.20;99.90;;;;;;5045333;28;20021;-71
2023/12/15 07:21:56;;;;;;;94.95;23.13;;;8.20;99.90;;;;;;5044041;28;20039;-71
2023/12/15 07:24:22;;;;;;;87.80;21.75;;;8.20;99.90;;;;;;5039590;28;20029;-71
2023/12/15 07:26:47;;;;;;;68.13;20.15;;;8.30;99.90;;;;;;5037001;28;20648;-71
2023/12/15 07:29:13;;;;;;;80.20;22.00;;;8.20;99.90;;;;;;5047807;28;20037;-71
2023/12/15 07:31:39;;;;;;;75.18;20.83;;;8.30;99.90;;;;;;5048537;28;20099;-71
2023/12/15 07:34:05;;;;;;;95.97;22.60;;;8.20;99.90;;;;;;5047606;28;20086;-72
2023/12/15 07:36:31;;;;;;;85.70;20.50;;;8.30;99.90;;;;;;5048116;28;20568;-71
2023/12/15 07:38:57;;;;;;;75.55;19.85;;;8.30;99.90;;;;;;5048518;28;20029;-71
2023/12/15 07:41:23;;;;;;;76.68;19.15;;;8.30;99.90;;;;;;5047927;28;20040;-71
2023/12/15 07:43:48;;;;;;;73.25;19.88;;;8.30;99.90;;;;;;5048334;28;20399;-72
2023/12/15 07:46:18;;;;;;;78.53;20.92;;;8.30;99.90;;;;;;5047614;28;20048;-72
2023/12/15 07:48:44;;;;;;;95.65;22.98;;;8.30;99.90;;;;;;5048444;28;20021;-72
2023/12/15 07:51:22;;;;;;;86.95;22.08;;;8.30;99.90;;;;;;5047476;28;20024;-71
2023/12/15 07:53:48;;;;;;;86.28;22.33;;;8.30;99.90;;;;;;5047403;28;20031;-72
2023/12/15 07:56:24;;;;;;;86.07;21.13;;;8.30;99.90;;;;;;5041078;28;20028;-72
2023/12/15 07:58:54;;;;;;;80.50;21.83;;;8.30;99.90;;;;;;5047012;28;20033;-72
2023/12/15 08:01:22;;;;;;;88.25;21.13;;;8.30;99.90;;;;;;5046716;28;20052;-71
2023/12/15 08:03:48;;;;;;;86.40;22.40;;;8.40;99.90;;;;;;5045837;28;20082;-72
2023/12/15 08:06:16;;;;;;;87.55;23.42;;;8.40;99.90;;;;;;5046353;28;20539;-71
2023/12/15 08:08:43;;;;;;;90.10;23.70;;;8.40;99.90;;;;;;5046840;28;20154;-71
2023/12/15 08:11:13;;;;;;;81.75;22.83;;;8.40;99.90;;;;;;5047777;28;20168;-72
2023/12/15 08:13:39;;;;;;;86.70;23.42;;;8.40;99.90;;;;;;5048029;28;20017;-72
2023/12/15 08:16:07;;;;;;;60.33;17.52;;;8.40;99.90;;;;;;5046234;28;20025;-71
2023/12/15 08:18:33;;;;;;;80.88;20.13;;;8.40;99.90;;;;;;5048147;28;20763;-72
2023/12/15 08:20:59;;;;;;;78.55;18.58;;;8.40;99.90;;;;;;5047716;28;20025;-72
2023/12/15 08:23:25;;;;;;;67.45;18.23;;;8.40;99.90;;;;;;5048245;28;20013;-71
2023/12/15 08:25:51;;;;;;;77.90;20.60;;;8.40;99.90;;;;;;5041820;28;20527;-72
2023/12/15 08:28:18;;;;;;;70.18;18.63;;;8.40;99.90;;;;;;5047674;28;20029;-71
2023/12/15 08:30:44;;;;;;;53.38;16.80;;;8.50;99.90;;;;;;5044905;28;20025;-72
2023/12/15 08:33:10;;;;;;;76.50;22.08;;;8.50;99.90;;;;;;5037533;28;20048;-72
2023/12/15 08:35:36;;;;;;;63.90;18.02;;;8.50;99.90;;;;;;5055449;28;20021;-71
2023/12/15 08:38:01;;;;;;;57.95;16.55;;;8.50;99.90;;;;;;5047340;28;20033;-72
2023/12/15 08:40:27;;;;;;;84.88;22.65;;;8.50;99.90;;;;;;5052925;28;20088;-71
2023/12/15 08:42:53;;;;;;;66.88;17.27;;;8.50;99.90;;;;;;5041474;28;20050;-71
2023/12/15 08:45:19;;;;;;;74.70;18.65;;;8.50;99.90;;;;;;5045703;28;20494;-71
2023/12/15 08:47:45;;;;;;;71.53;18.80;;;8.50;99.90;;;;;;5045682;28;20111;-72
2023/12/15 08:50:10;;;;;;;67.78;18.27;;;8.50;99.90;;;;;;5043898;28;21404;-71
2023/12/15 08:52:36;;;;;;;46.63;15.57;;;8.50;99.90;;;;;;5038788;28;20048;-72
2023/12/15 08:55:02;;;;;;;57.92;16.42;;;8.50;99.90;;;;;;5036375;28;20039;-71
2023/12/15 08:57:27;;;;;;;56.38;16.83;;;8.50;99.90;;;;;;5046432;28;20075;-72
2023/12/15 08:59:53;;;;;;;67.72;17.42;;;8.50;99.90;;;;;;5040928;28;20033;-72
2023/12/15 09:02:19;;;;;;;75.75;20.52;;;8.50;99.90;;;;;;5030791;28;20035;-72
2023/12/15 09:04:45;;;;;;;74.25;18.67;;;8.60;99.90;;;;;;5045821;28;20356;-72
2023/12/15 09:07:11;;;;;;;79.40;19.23;;;8.60;99.90;;;;;;5026720;28;20025;-72
2023/12/15 09:09:38;;;;;;;68.75;17.95;;;8.60;99.90;;;;;;5042018;28;20025;-72
2023/12/15 09:12:05;;;;;;;72.60;20.60;;;8.60;99.90;;;;;;5033193;28;20029;-71
2023/12/15 09:14:31;;;;;;;63.17;17.70;;;8.60;99.90;;;;;;5043174;28;20029;-72
2023/12/15 09:16:57;;;;;;;82.10;20.95;;;8.60;99.90;;;;;;5042676;28;20049;-72
2023/12/15 09:19:25;;;;;;;57.97;16.17;;;8.60;99.90;;;;;;5035445;28;20079;-72
2023/12/15 09:21:50;;;;;;;60.13;18.20;;;8.70;99.90;;;;;;5043203;28;20104;-72
2023/12/15 09:24:17;;;;;;;80.47;18.45;;;8.60;99.90;;;;;;5046091;28;20546;-72
2023/12/15 09:26:44;;;;;;;60.53;15.80;;;8.70;99.90;;;;;;5046025;28;20061;-71
2023/12/15 09:29:11;;;;;;;60.05;16.98;;;8.70;99.90;;;;;;5046250;28;20377;-72
2023/12/15 09:31:37;;;;;;;27.17;10.80;;;8.70;99.90;;;;;;5046049;28;20025;-72
2023/12/15 09:34:03;;;;;;;24.48;8.93;;;8.70;99.90;;;;;;5046590;28;20500;-72
2023/12/15 09:36:29;;;;;;;37.55;12.18;;;8.70;99.90;;;;;;5045887;28;20049;-71
2023/12/15 09:38:54;;;;;;;38.60;13.57;;;8.80;99.90;;;;;;5040835;28;20040;-72
2023/12/15 09:41:20;;;;;;;32.20;11.77;;;8.80;99.90;;;;;;5045926;28;20031;-72
2023/12/15 09:43:46;;;;;;;24.65;7.85;;;8.80;99.90;;;;;;5045914;28;20064;-72
2023/12/15 09:46:12;;;;;;;30.52;10.40;;;8.80;99.90;;;;;;5046046;28;20044;-71
2023/12/15 09:48:38;;;;;;;33.30;10.85;;;8.90;99.90;;;;;;5046131;28;20364;-71
2023/12/15 09:51:14;;;;;;;29.05;9.50;;;8.90;99.90;;;;;;5044394;28;20064;-72
2023/12/15 09:53:44;;;;;;;46.90;12.68;;;8.90;99.90;;;;;;5044927;28;20433;-72
2023/12/15 09:56:10;;;;;;;40.83;12.25;;;9.00;99.90;;;;;;5045706;28;20051;-72
2023/12/15 09:58:37;;;;;;;38.92;12.05;;;9.00;99.90;;;;;;5042617;28;20031;-72
2023/12/15 10:01:04;;;;;;;41.88;12.02;;;9.00;99.90;;;;;;5044370;28;20036;-72
2023/12/15 10:03:30;;;;;;;45.33;13.43;;;9.00;99.90;;;;;;5047314;28;20032;-72
2023/12/15 10:05:56;;;;;;;36.38;11.75;;;9.10;99.90;;;;;;5050005;28;20071;-72
2023/12/15 10:08:23;;;;;;;38.38;13.93;;;9.10;99.90;;;;;;5050240;28;20024;-72
2023/12/15 10:10:52;;;;;;;50.55;13.63;;;9.10;99.90;;;;;;5048358;28;20031;-71
2023/12/15 10:13:18;;;;;;;43.22;14.60;;;9.10;99.90;;;;;;5050190;28;20024;-72
2023/12/15 10:15:44;;;;;;;54.45;15.85;;;9.10;99.90;;;;;;5049782;28;20025;-72
2023/12/15 10:18:13;;;;;;;64.93;17.15;;;9.10;99.90;;;;;;5050181;28;20021;-72
2023/12/15 10:20:39;;;;;;;57.67;15.45;;;9.20;99.90;;;;;;5049353;28;20102;-72
2023/12/15 10:23:06;;;;;;;54.33;15.15;;;9.20;99.90;;;;;;5049880;28;20082;-72
2023/12/15 10:25:33;;;;;;;45.08;15.05;;;9.20;99.90;;;;;;5048326;28;20552;-72
2023/12/15 10:27:59;;;;;;;55.53;16.50;;;9.20;99.90;;;;;;5049615;28;20029;-71
2023/12/15 10:30:25;;;;;;;59.42;15.30;;;9.20;99.90;;;;;;5049546;28;20021;-72
2023/12/15 10:32:54;;;;;;;53.70;14.77;;;9.20;99.90;;;;;;5048228;28;20490;-72
2023/12/15 10:35:22;;;;;;;29.48;11.88;;;9.30;99.90;;;;;;5048122;28;20445;-72
2023/12/15 10:37:48;;;;;;;45.53;13.48;;;9.30;99.90;;;;;;5048808;28;20057;-72
2023/12/15 10:40:14;;;;;;;52.75;14.80;;;9.30;99.90;;;;;;5045288;28;20509;-72
2023/12/15 10:42:41;;;;;;;40.58;13.98;;;9.30;99.90;;;;;;5047824;28;20116;-72
2023/12/15 10:45:08;;;;;;;36.90;12.32;;;9.30;99.90;;;;;;5049443;28;20519;-72
2023/12/15 10:47:34;;;;;;;40.38;13.40;;;9.30;99.90;;;;;;5045246;28;20025;-72
2023/12/15 10:50:03;;;;;;;41.38;13.50;;;9.30;99.90;;;;;;5049563;28;20029;-72
2023/12/15 10:52:32;;;;;;;44.22;14.07;;;9.30;99.90;;;;;;5046259;28;20029;-72
2023/12/15 10:54:59;;;;;;;47.08;13.45;;;9.40;99.90;;;;;;5049620;28;20028;-72
2023/12/15 10:57:25;;;;;;;46.95;14.25;;;9.40;99.90;;;;;;5048916;28;20056;-71
2023/12/15 10:59:51;;;;;;;49.38;14.18;;;9.40;99.90;;;;;;5040602;28;20510;-71
2023/12/15 11:02:20;;;;;;;48.13;15.02;;;9.40;99.90;;;;;;5048467;28;20045;-72
2023/12/15 11:04:51;;;;;;;47.67;14.57;;;9.40;99.90;;;;;;5049296;28;20028;-72
2023/12/15 11:07:20;;;;;;;33.28;12.57;;;9.40;99.90;;;;;;5048505;28;20032;-72
2023/12/15 11:09:46;;;;;;;36.33;12.55;;;9.40;99.90;;;;;;5048706;28;20025;-72
2023/12/15 11:12:27;;;;;;;46.08;11.85;;;9.40;99.90;;;;;;5048824;28;20031;-72
2023/12/15 11:15:12;;;;;;;28.27;9.38;;;9.40;99.90;;;;;;5048716;28;20029;-72
2023/12/15 11:17:47;;;;;;;33.80;12.15;;;9.40;99.90;;;;;;5048223;28;20029;-72
2023/12/15 11:20:18;;;;;;;50.47;14.27;;;9.40;99.90;;;;;;5039747;28;20017;-72
2023/12/15 11:22:58;;;;;;;52.08;14.30;;;9.50;99.90;;;;;;5041298;28;20040;-72
2023/12/15 11:25:32;;;;;;;40.20;11.75;;;9.50;99.90;;;;;;5043802;28;20032;-71
2023/12/15 11:28:18;;;;;;;48.08;13.80;;;9.50;99.90;;;;;;5047553;28;20474;-71
2023/12/15 11:30:51;;;;;;;31.73;11.88;;;9.50;99.90;;;;;;5033948;28;20112;-71
2023/12/15 11:33:32;;;;;;;31.92;10.38;;;9.50;99.90;;;;;;5040854;28;20120;-71
2023/12/15 11:36:04;;;;;;;51.25;14.02;;;9.60;99.90;;;;;;5030057;28;20100;-72
2023/12/15 11:38:29;;;;;;;44.22;13.73;;;9.60;99.90;;;;;;5043547;28;20025;-71
2023/12/15 11:40:56;;;;;;;34.58;10.30;;;9.60;99.90;;;;;;5030033;28;20032;-72
2023/12/15 11:43:25;;;;;;;19.88;9.05;;;9.60;99.90;;;;;;5047032;28;20394;-73
2023/12/15 11:45:53;;;;;;;47.35;11.40;;;9.60;99.90;;;;;;5034434;28;20021;-72
2023/12/15 11:48:18;;;;;;;42.25;13.80;;;9.60;99.90;;;;;;5048435;28;20024;-72
2023/12/15 11:50:45;;;;;;;39.25;11.23;;;9.60;99.90;;;;;;5048029;28;20025;-72
2023/12/15 11:53:15;;;;;;;29.95;11.13;;;9.70;99.90;;;;;;5048011;28;20044;-71
2023/12/15 11:55:41;;;;;;;28.38;10.93;;;9.70;99.90;;;;;;5045023;28;20489;-72
2023/12/15 11:58:07;;;;;;;30.00;10.45;;;9.80;99.90;;;;;;5034465;28;20021;-72
2023/12/15 12:00:33;;;;;;;27.38;10.05;;;9.80;99.90;;;;;;5048100;28;20017;-72
2023/12/15 12:02:59;;;;;;;26.20;9.68;;;9.80;99.90;;;;;;5045725;28;20017;-72
2023/12/15 12:05:26;;;;;;;35.67;10.00;;;9.80;99.90;;;;;;5043329;28;20557;-71
2023/12/15 12:07:52;;;;;;;25.17;8.73;;;9.80;99.90;;;;;;5056079;28;20109;-72
2023/12/15 12:10:18;;;;;;;29.45;7.85;;;9.80;99.90;;;;;;5035610;28;20546;-72
2023/12/15 12:12:44;;;;;;;29.42;9.70;;;9.80;99.90;;;;;;5033848;28;20034;-72
2023/12/15 12:15:10;;;;;;;26.63;9.52;;;9.80;99.90;;;;;;5034726;28;20100;-73
2023/12/15 12:17:38;;;;;;;29.08;9.73;;;9.90;99.90;;;;;;5047138;28;20397;-72
2023/12/15 12:20:06;;;;;;;29.20;10.13;;;9.90;99.90;;;;;;5044620;28;20021;-72
2023/12/15 12:22:38;;;;;;;30.85;8.75;;;9.90;99.90;;;;;;5030077;28;20407;-72
2023/12/15 12:25:04;;;;;;;22.10;8.23;;;10.00;99.90;;;;;;5044037;28;20401;-72
2023/12/15 12:27:34;;;;;;;24.52;7.60;;;9.90;99.90;;;;;;5043083;28;20673;-71
2023/12/15 12:30:00;;;;;;;19.27;7.27;;;10.00;99.90;;;;;;5040136;28;20032;-71
2023/12/15 12:32:26;;;;;;;23.33;6.55;;;10.00;99.90;;;;;;5044116;28;20028;-72